Time;durP1;ratioP1;P1;durP2;ratioP2;P2;SDS_P1;SDS_P2;PMS_P1;PMS_P2;Temp;Humidity;BMP_temperature;BMP_pressure;BME280_temperature;BME280_humidity;BME280_pressure;Samples;Min_cycle;Max_cycle;Signal;HPM_P1;HPM_P2
2022/07/20 00:01:08;;;;;;;7.40;6.43;;;;;;;;;;4929907;29;20343;-76
2022/07/20 00:03:33;;;;;;;7.07;5.57;;;;;;;;;;4927685;29;20428;-76
2022/07/20 00:05:58;;;;;;;8.90;6.30;;;;;;;;;;4935375;29;20182;-76
2022/07/20 00:11:23;;;;;;;7.80;6.97;;;;;;;;;;4929985;29;20228;-75
2022/07/20 00:13:49;;;;;;;6.43;5.65;;;;;;;;;;4926562;29;20499;-75
2022/07/20 00:16:14;;;;;;;7.95;6.13;;;;;;;;;;4932124;29;20193;-76
2022/07/20 00:18:39;;;;;;;11.60;5.82;;;;;;;;;;4933371;29;20174;-76
2022/07/20 00:21:05;;;;;;;10.93;6.75;;;;;;;;;;4911761;29;20226;-76
2022/07/20 00:23:30;;;;;;;8.10;5.80;;;;;;;;;;4920963;29;20209;-75
2022/07/20 00:25:56;;;;;;;6.45;5.55;;;;;;;;;;4942219;29;20182;-76
2022/07/20 00:28:21;;;;;;;7.65;5.93;;;;;;;;;;4936829;29;20186;-75
2022/07/20 00:30:46;;;;;;;9.10;6.43;;;;;;;;;;4938528;29;20178;-76
2022/07/20 00:33:12;;;;;;;6.78;6.07;;;;;;;;;;4937729;29;20168;-76
2022/07/20 00:35:37;;;;;;;6.50;5.78;;;;;;;;;;4930191;29;20234;-76
2022/07/20 00:38:02;;;;;;;10.82;6.25;;;;;;;;;;4936106;29;20182;-76
2022/07/20 00:40:27;;;;;;;9.32;5.88;;;;;;;;;;4931480;29;20187;-76
2022/07/20 00:42:53;;;;;;;6.75;5.63;;;;;;;;;;4916967;29;20182;-75
2022/07/20 00:45:18;;;;;;;8.05;5.50;;;;;;;;;;4935245;29;20213;-76
2022/07/20 00:47:43;;;;;;;7.32;5.97;;;;;;;;;;4934478;29;20194;-75
2022/07/20 00:50:09;;;;;;;6.75;5.80;;;;;;;;;;4917381;29;20198;-75
2022/07/20 00:52:34;;;;;;;7.72;6.30;;;;;;;;;;4923656;29;20210;-76
2022/07/20 00:55:00;;;;;;;8.13;6.05;;;;;;;;;;4927724;29;20209;-75
2022/07/20 00:57:25;;;;;;;10.38;6.13;;;;;;;;;;4937642;29;20224;-76
2022/07/20 00:59:51;;;;;;;10.07;5.95;;;;;;;;;;4937366;29;20211;-75
2022/07/20 01:02:16;;;;;;;7.68;6.18;;;;;;;;;;4932682;29;20283;-75
2022/07/20 01:04:41;;;;;;;6.32;5.72;;;;;;;;;;4917474;29;20182;-76
2022/07/20 01:07:07;;;;;;;7.72;6.78;;;;;;;;;;4938930;29;20429;-76
2022/07/20 01:09:32;;;;;;;6.97;5.70;;;;;;;;;;4933110;29;20190;-76
2022/07/20 01:11:57;;;;;;;9.00;5.95;;;;;;;;;;4932675;29;20225;-76
2022/07/20 01:14:22;;;;;;;5.95;5.35;;;;;;;;;;4914680;29;20270;-76
2022/07/20 01:16:48;;;;;;;6.70;5.85;;;;;;;;;;4931214;29;20190;-76
2022/07/20 01:19:13;;;;;;;9.30;6.40;;;;;;;;;;4933827;29;20182;-75
2022/07/20 01:21:41;;;;;;;9.07;6.20;;;;;;;;;;4926272;29;20241;-75
2022/07/20 01:24:15;;;;;;;10.30;6.10;;;;;;;;;;4941134;29;20186;-75
2022/07/20 01:26:41;;;;;;;7.25;5.60;;;;;;;;;;4928384;29;20281;-76
2022/07/20 01:29:07;;;;;;;10.20;6.00;;;;;;;;;;4934397;29;20190;-75
2022/07/20 01:31:32;;;;;;;6.80;6.20;;;;;;;;;;4912518;29;20310;-75
2022/07/20 01:33:58;;;;;;;7.78;6.45;;;;;;;;;;4934046;29;20213;-75
2022/07/20 01:36:23;;;;;;;7.00;5.75;;;;;;;;;;4931178;29;20182;-75
2022/07/20 01:38:48;;;;;;;7.45;5.72;;;;;;;;;;4933185;29;20174;-75
2022/07/20 01:41:13;;;;;;;8.13;5.97;;;;;;;;;;4929940;29;20182;-76
2022/07/20 01:43:38;;;;;;;6.60;5.65;;;;;;;;;;4942513;29;20190;-76
2022/07/20 01:46:04;;;;;;;7.45;5.80;;;;;;;;;;4933473;29;20182;-76
2022/07/20 01:48:29;;;;;;;6.80;6.20;;;;;;;;;;4935155;29;20264;-76
2022/07/20 01:50:54;;;;;;;8.15;5.97;;;;;;;;;;4935498;29;20293;-76
2022/07/20 01:53:19;;;;;;;6.90;5.50;;;;;;;;;;4939798;29;20264;-76
2022/07/20 01:55:45;;;;;;;7.93;5.93;;;;;;;;;;4931273;29;20206;-75
2022/07/20 01:58:10;;;;;;;7.78;5.95;;;;;;;;;;4931452;29;20265;-75
2022/07/20 02:00:35;;;;;;;7.43;5.85;;;;;;;;;;4931083;29;20286;-75
2022/07/20 02:03:00;;;;;;;12.88;5.90;;;;;;;;;;4933498;29;20190;-75
2022/07/20 02:05:25;;;;;;;6.65;5.90;;;;;;;;;;4931877;29;20186;-76
2022/07/20 02:07:51;;;;;;;7.60;5.72;;;;;;;;;;4918132;29;20187;-75
2022/07/20 02:10:16;;;;;;;6.93;6.22;;;;;;;;;;4931648;29;20403;-76
2022/07/20 02:12:41;;;;;;;6.85;5.97;;;;;;;;;;4932910;29;20214;-76
2022/07/20 02:15:07;;;;;;;7.03;5.80;;;;;;;;;;4929082;29;20189;-75
2022/07/20 02:17:33;;;;;;;8.25;6.03;;;;;;;;;;4926967;29;20197;-76
2022/07/20 02:19:58;;;;;;;6.85;5.82;;;;;;;;;;4934371;28;20229;-75
2022/07/20 02:22:23;;;;;;;8.85;6.50;;;;;;;;;;4932697;29;20182;-76
2022/07/20 02:24:48;;;;;;;6.07;5.47;;;;;;;;;;4930916;29;20194;-76
2022/07/20 02:27:14;;;;;;;8.15;5.95;;;;;;;;;;4931221;29;20182;-76
2022/07/20 02:29:39;;;;;;;6.90;6.18;;;;;;;;;;4917457;29;20202;-76
2022/07/20 02:32:04;;;;;;;7.30;5.80;;;;;;;;;;4923169;29;20209;-76
2022/07/20 02:34:30;;;;;;;9.98;6.63;;;;;;;;;;4937613;29;20182;-75
2022/07/20 02:36:55;;;;;;;11.07;6.70;;;;;;;;;;4935138;29;20209;-75
2022/07/20 02:39:20;;;;;;;6.80;6.10;;;;;;;;;;4929340;29;20278;-76
2022/07/20 02:41:45;;;;;;;7.47;6.05;;;;;;;;;;4941352;29;20232;-76
2022/07/20 02:44:10;;;;;;;9.50;6.03;;;;;;;;;;4941628;29;20186;-76
2022/07/20 02:46:37;;;;;;;6.13;5.53;;;;;;;;;;4916288;29;20227;-75
2022/07/20 02:49:02;;;;;;;9.73;6.18;;;;;;;;;;4930555;29;20182;-75
2022/07/20 02:51:27;;;;;;;7.55;6.70;;;;;;;;;;4937637;29;20306;-75
2022/07/20 02:53:52;;;;;;;6.80;5.70;;;;;;;;;;4916137;29;20306;-75
2022/07/20 02:56:18;;;;;;;8.30;6.47;;;;;;;;;;4935047;29;20252;-75
2022/07/20 02:58:43;;;;;;;7.40;5.68;;;;;;;;;;4933697;29;20378;-75
2022/07/20 03:01:08;;;;;;;9.02;6.70;;;;;;;;;;4915444;29;20190;-75
2022/07/20 03:03:33;;;;;;;8.15;6.32;;;;;;;;;;4905258;29;20191;-75
2022/07/20 03:06:00;;;;;;;8.45;6.43;;;;;;;;;;4934145;29;20202;-75
2022/07/20 03:08:25;;;;;;;7.55;6.63;;;;;;;;;;4917474;29;20182;-75
2022/07/20 03:10:51;;;;;;;6.70;6.07;;;;;;;;;;4930040;29;20192;-74
2022/07/20 03:13:16;;;;;;;10.23;5.50;;;;;;;;;;4917295;29;20209;-75
2022/07/20 03:15:41;;;;;;;6.50;5.90;;;;;;;;;;4928622;29;20182;-75
2022/07/20 03:18:06;;;;;;;6.05;5.45;;;;;;;;;;4912388;29;20177;-75
2022/07/20 03:20:33;;;;;;;8.98;6.00;;;;;;;;;;4931903;29;20232;-75
2022/07/20 03:22:58;;;;;;;5.88;5.35;;;;;;;;;;4922016;29;20250;-75
2022/07/20 03:25:24;;;;;;;7.72;5.97;;;;;;;;;;4929390;29;20261;-75
2022/07/20 03:27:51;;;;;;;7.47;5.90;;;;;;;;;;4911582;29;20326;-75
2022/07/20 03:30:17;;;;;;;7.30;6.05;;;;;;;;;;4939034;29;20194;-75
2022/07/20 03:32:42;;;;;;;7.43;5.88;;;;;;;;;;4932657;29;20194;-75
2022/07/20 03:35:07;;;;;;;6.80;5.90;;;;;;;;;;4924680;29;20182;-75
2022/07/20 03:37:33;;;;;;;8.13;5.65;;;;;;;;;;4933646;29;20269;-75
2022/07/20 03:39:58;;;;;;;9.25;5.82;;;;;;;;;;4912361;29;20429;-75
2022/07/20 03:42:23;;;;;;;12.18;6.32;;;;;;;;;;4931701;29;20205;-74
2022/07/20 03:44:49;;;;;;;6.28;5.40;;;;;;;;;;4926813;29;20272;-75
2022/07/20 03:47:14;;;;;;;7.40;5.90;;;;;;;;;;4928236;29;20189;-76
2022/07/20 03:49:39;;;;;;;10.18;5.72;;;;;;;;;;4926203;29;20191;-75
2022/07/20 03:52:05;;;;;;;6.35;5.75;;;;;;;;;;4932327;29;20206;-75
2022/07/20 03:54:30;;;;;;;7.72;5.63;;;;;;;;;;4932686;29;20194;-75
2022/07/20 03:56:55;;;;;;;6.57;5.30;;;;;;;;;;4941711;29;20207;-76
2022/07/20 03:59:21;;;;;;;7.65;5.10;;;;;;;;;;4942656;29;20181;-75
2022/07/20 04:01:46;;;;;;;7.88;5.10;;;;;;;;;;4935942;29;20178;-75
2022/07/20 04:04:11;;;;;;;7.13;5.88;;;;;;;;;;4917238;29;20186;-75
2022/07/20 04:06:36;;;;;;;8.38;6.65;;;;;;;;;;4912629;29;20178;-75
2022/07/20 04:09:02;;;;;;;10.32;6.03;;;;;;;;;;4917673;29;20198;-75
2022/07/20 04:11:27;;;;;;;9.32;5.90;;;;;;;;;;4920640;29;20194;-75
2022/07/20 04:13:53;;;;;;;9.00;5.72;;;;;;;;;;4929567;29;20228;-76
2022/07/20 04:16:18;;;;;;;8.95;6.30;;;;;;;;;;4914031;29;20214;-75
2022/07/20 04:18:43;;;;;;;6.72;5.20;;;;;;;;;;4938387;29;20250;-76
2022/07/20 04:21:08;;;;;;;7.82;5.50;;;;;;;;;;4934758;29;20246;-75
2022/07/20 04:23:34;;;;;;;6.28;5.68;;;;;;;;;;4936161;29;20186;-76
2022/07/20 04:25:59;;;;;;;10.68;5.80;;;;;;;;;;4929471;29;20210;-76
2022/07/20 04:28:24;;;;;;;8.45;6.10;;;;;;;;;;4944572;29;20268;-76
2022/07/20 04:30:50;;;;;;;6.30;5.70;;;;;;;;;;4918991;29;20232;-76
2022/07/20 04:33:15;;;;;;;8.45;5.15;;;;;;;;;;4920163;29;20188;-75
2022/07/20 04:35:40;;;;;;;7.55;6.78;;;;;;;;;;4919693;29;20254;-75
2022/07/20 04:38:05;;;;;;;7.13;5.28;;;;;;;;;;4932333;29;20261;-76
2022/07/20 04:40:31;;;;;;;6.38;5.65;;;;;;;;;;4930111;29;20193;-75
2022/07/20 04:42:56;;;;;;;7.65;5.22;;;;;;;;;;4936007;29;20245;-76
2022/07/20 04:45:21;;;;;;;6.35;5.72;;;;;;;;;;4924770;29;20175;-76
2022/07/20 04:47:46;;;;;;;9.40;6.55;;;;;;;;;;4929957;29;20183;-75
2022/07/20 04:50:12;;;;;;;9.63;5.60;;;;;;;;;;4937871;29;20210;-75
2022/07/20 04:52:37;;;;;;;8.48;5.68;;;;;;;;;;4932830;29;20253;-75
2022/07/20 04:55:02;;;;;;;6.82;5.78;;;;;;;;;;4915534;29;20175;-76
2022/07/20 04:57:28;;;;;;;6.90;5.13;;;;;;;;;;4932718;29;20208;-74
2022/07/20 04:59:53;;;;;;;5.68;5.18;;;;;;;;;;4917922;29;20238;-76
2022/07/20 05:02:21;;;;;;;6.28;5.38;;;;;;;;;;4933782;29;20191;-76
2022/07/20 05:04:46;;;;;;;7.32;5.82;;;;;;;;;;4931505;29;20178;-76
2022/07/20 05:07:12;;;;;;;6.55;5.60;;;;;;;;;;4938623;29;20191;-76
2022/07/20 05:09:37;;;;;;;7.32;5.38;;;;;;;;;;4935196;29;20187;-75
2022/07/20 05:12:03;;;;;;;6.68;4.93;;;;;;;;;;4931166;29;20209;-75
2022/07/20 05:14:30;;;;;;;7.15;5.05;;;;;;;;;;4927784;29;20179;-75
2022/07/20 05:16:56;;;;;;;8.40;5.03;;;;;;;;;;4934063;29;20178;-76
2022/07/20 05:19:21;;;;;;;6.88;5.10;;;;;;;;;;4936640;29;20186;-76
2022/07/20 05:21:46;;;;;;;6.72;4.88;;;;;;;;;;4939057;28;20227;-76
2022/07/20 05:24:11;;;;;;;5.32;4.82;;;;;;;;;;4952589;28;20178;-75
2022/07/20 05:26:37;;;;;;;8.00;5.30;;;;;;;;;;4927570;28;20209;-76
2022/07/20 05:29:02;;;;;;;5.50;4.75;;;;;;;;;;4951112;28;20188;-75
2022/07/20 05:31:28;;;;;;;6.00;4.72;;;;;;;;;;4957019;28;20209;-76
2022/07/20 05:33:53;;;;;;;9.45;5.00;;;;;;;;;;4950288;28;20181;-75
2022/07/20 05:36:18;;;;;;;11.15;5.82;;;;;;;;;;4951290;29;20177;-75
2022/07/20 05:38:43;;;;;;;6.95;4.60;;;;;;;;;;4934810;28;20178;-75
2022/07/20 05:41:08;;;;;;;4.60;3.90;;;;;;;;;;4964598;28;20272;-75
2022/07/20 05:43:34;;;;;;;5.13;4.50;;;;;;;;;;4958765;28;20181;-76
2022/07/20 05:45:59;;;;;;;11.63;5.10;;;;;;;;;;4953493;28;20217;-76
2022/07/20 05:48:26;;;;;;;7.57;4.63;;;;;;;;;;4948621;28;20178;-75
2022/07/20 05:50:51;;;;;;;5.07;4.57;;;;;;;;;;4944355;28;20267;-76
2022/07/20 05:53:16;;;;;;;5.70;4.50;;;;;;;;;;4924855;29;20259;-76
2022/07/20 05:55:42;;;;;;;6.05;4.63;;;;;;;;;;4948610;28;20296;-79
2022/07/20 05:58:08;;;;;;;10.00;5.13;;;;;;;;;;4954433;28;20205;-79
2022/07/20 06:00:34;;;;;;;8.80;4.80;;;;;;;;;;4954551;28;20248;-80
2022/07/20 06:03:00;;;;;;;5.57;5.03;;;;;;;;;;4956947;28;20392;-80
2022/07/20 06:05:25;;;;;;;6.20;4.43;;;;;;;;;;4938811;29;20181;-80
2022/07/20 06:07:53;;;;;;;7.65;4.82;;;;;;;;;;4942645;28;20185;-80
2022/07/20 06:10:18;;;;;;;6.80;5.03;;;;;;;;;;4959741;28;20182;-80
2022/07/20 06:12:43;;;;;;;5.65;4.35;;;;;;;;;;4958593;28;20276;-80
2022/07/20 06:15:09;;;;;;;6.03;4.72;;;;;;;;;;4952065;28;20182;-80
2022/07/20 06:17:38;;;;;;;4.95;4.05;;;;;;;;;;4959925;28;20177;-80
2022/07/20 06:22:32;;;;;;;7.85;4.63;;;;;;;;;;5021299;28;20222;-77
2022/07/20 06:24:58;;;;;;;6.28;4.20;;;;;;;;;;5017130;28;20191;-76
2022/07/20 06:27:23;;;;;;;5.60;4.50;;;;;;;;;;5018057;28;20187;-76
2022/07/20 06:29:48;;;;;;;4.97;4.20;;;;;;;;;;5020044;28;20172;-76
2022/07/20 06:32:13;;;;;;;6.85;4.43;;;;;;;;;;4998874;28;20211;-76
2022/07/20 06:34:38;;;;;;;9.07;4.80;;;;;;;;;;4988843;28;20176;-75
2022/07/20 06:37:04;;;;;;;6.05;4.57;;;;;;;;;;5013083;28;20206;-76
2022/07/20 06:39:29;;;;;;;5.50;5.00;;;;;;;;;;5011547;28;20214;-76
2022/07/20 06:41:54;;;;;;;4.93;4.28;;;;;;;;;;4995152;28;20192;-76
2022/07/20 06:44:20;;;;;;;8.57;4.78;;;;;;;;;;5011158;28;20188;-76
2022/07/20 06:46:45;;;;;;;5.47;4.68;;;;;;;;;;5014042;28;20237;-76
2022/07/20 06:49:11;;;;;;;8.48;4.60;;;;;;;;;;5015060;28;20179;-76
2022/07/20 06:51:36;;;;;;;6.07;4.22;;;;;;;;;;4989092;28;20204;-76
2022/07/20 06:54:01;;;;;;;6.28;3.92;;;;;;;;;;5006361;28;20214;-76
2022/07/20 06:56:26;;;;;;;5.25;4.70;;;;;;;;;;5006224;28;20278;-76
2022/07/20 06:58:51;;;;;;;4.55;4.15;;;;;;;;;;4975607;28;20188;-76
2022/07/20 07:01:17;;;;;;;5.55;4.15;;;;;;;;;;4995041;28;20189;-76
2022/07/20 07:03:42;;;;;;;5.43;4.00;;;;;;;;;;4997095;28;20267;-77
2022/07/20 07:06:07;;;;;;;6.57;4.45;;;;;;;;;;4972555;28;20194;-76
2022/07/20 07:08:32;;;;;;;6.25;4.30;;;;;;;;;;4972102;28;20184;-76
2022/07/20 07:10:58;;;;;;;5.00;4.50;;;;;;;;;;4980837;28;20184;-76
2022/07/20 07:13:23;;;;;;;5.70;3.90;;;;;;;;;;4989489;28;20180;-76
2022/07/20 07:15:48;;;;;;;5.97;3.85;;;;;;;;;;4971600;28;20176;-75
2022/07/20 07:18:13;;;;;;;5.38;4.60;;;;;;;;;;4977270;28;20247;-76
2022/07/20 07:20:38;;;;;;;5.22;4.28;;;;;;;;;;4966082;28;20279;-76
2022/07/20 07:23:04;;;;;;;5.22;4.72;;;;;;;;;;4970961;28;20177;-76
2022/07/20 07:25:29;;;;;;;7.82;4.70;;;;;;;;;;4956992;28;20182;-75
2022/07/20 07:27:55;;;;;;;4.78;4.32;;;;;;;;;;4958609;28;20189;-76
2022/07/20 07:30:20;;;;;;;6.93;3.95;;;;;;;;;;4960109;28;20180;-75
2022/07/20 07:32:45;;;;;;;4.88;4.25;;;;;;;;;;4957310;28;20216;-75
2022/07/20 07:35:10;;;;;;;4.20;3.80;;;;;;;;;;4954872;28;20178;-75
2022/07/20 07:37:38;;;;;;;6.18;4.30;;;;;;;;;;4976660;28;20181;-76
2022/07/20 07:40:04;;;;;;;5.07;4.57;;;;;;;;;;4959981;28;20177;-76
2022/07/20 07:42:29;;;;;;;5.38;4.88;;;;;;;;;;4961025;28;20184;-76
2022/07/20 07:44:54;;;;;;;4.85;4.13;;;;;;;;;;4953519;28;20243;-76
2022/07/20 07:47:19;;;;;;;5.05;4.57;;;;;;;;;;4963515;28;20331;-76
2022/07/20 07:49:45;;;;;;;6.88;5.38;;;;;;;;;;4952548;28;20180;-76
2022/07/20 07:52:10;;;;;;;7.63;4.53;;;;;;;;;;4953533;28;20296;-76
2022/07/20 07:54:35;;;;;;;5.05;4.65;;;;;;;;;;4963106;28;20183;-77
2022/07/20 07:57:00;;;;;;;10.18;5.80;;;;;;;;;;4949797;28;20205;-75
2022/07/20 07:59:26;;;;;;;6.40;5.70;;;;;;;;;;4958070;28;20204;-76
2022/07/20 08:01:52;;;;;;;7.90;5.72;;;;;;;;;;4949741;28;20199;-76
2022/07/20 08:04:17;;;;;;;7.00;5.38;;;;;;;;;;4963420;28;20183;-75
2022/07/20 08:06:42;;;;;;;5.35;4.85;;;;;;;;;;4948171;28;20176;-76
2022/07/20 08:09:07;;;;;;;5.80;5.30;;;;;;;;;;4982290;28;20183;-76
2022/07/20 08:11:34;;;;;;;9.80;5.28;;;;;;;;;;4952701;28;20373;-76
2022/07/20 08:14:02;;;;;;;4.72;4.32;;;;;;;;;;4962278;28;20181;-76
2022/07/20 08:16:30;;;;;;;6.47;5.15;;;;;;;;;;4972900;28;20352;-75
2022/07/20 08:18:55;;;;;;;5.88;5.28;;;;;;;;;;4976851;28;20180;-76
2022/07/20 08:21:20;;;;;;;5.15;4.65;;;;;;;;;;4953463;28;20300;-76
2022/07/20 08:23:45;;;;;;;5.32;4.82;;;;;;;;;;4961009;28;20263;-76
2022/07/20 08:26:11;;;;;;;6.80;4.78;;;;;;;;;;4966557;28;20204;-76
2022/07/20 08:28:36;;;;;;;5.30;4.82;;;;;;;;;;4953878;28;20184;-76
2022/07/20 08:31:02;;;;;;;5.90;4.95;;;;;;;;;;4969906;28;20181;-76
2022/07/20 08:33:27;;;;;;;7.38;5.80;;;;;;;;;;4957279;28;20280;-76
2022/07/20 08:35:52;;;;;;;7.13;5.00;;;;;;;;;;4982032;28;20183;-76
2022/07/20 08:38:17;;;;;;;6.18;5.13;;;;;;;;;;4955409;28;20185;-76
2022/07/20 08:40:43;;;;;;;6.32;5.28;;;;;;;;;;4958082;28;20185;-76
2022/07/20 08:43:09;;;;;;;5.88;5.18;;;;;;;;;;4951255;28;20181;-76
2022/07/20 08:45:35;;;;;;;6.07;5.57;;;;;;;;;;4969643;28;20184;-77
2022/07/20 08:48:08;;;;;;;5.43;5.03;;;;;;;;;;4957434;28;20195;-75
2022/07/20 08:50:34;;;;;;;6.70;5.68;;;;;;;;;;4960394;28;20334;-75
2022/07/20 08:52:59;;;;;;;8.55;4.97;;;;;;;;;;4957208;28;20273;-76
2022/07/20 08:55:26;;;;;;;6.43;5.72;;;;;;;;;;4954533;28;20197;-77
2022/07/20 08:57:51;;;;;;;6.05;5.45;;;;;;;;;;4941629;28;20180;-75
2022/07/20 09:00:17;;;;;;;6.32;5.63;;;;;;;;;;4960611;28;20176;-76
2022/07/20 09:02:48;;;;;;;9.00;5.88;;;;;;;;;;4971003;28;20187;-76
2022/07/20 09:05:13;;;;;;;6.32;5.72;;;;;;;;;;4957482;28;20227;-76
2022/07/20 09:07:40;;;;;;;9.05;5.63;;;;;;;;;;4968371;28;20273;-76
2022/07/20 09:10:07;;;;;;;8.10;6.22;;;;;;;;;;4955473;28;20192;-76
2022/07/20 09:12:48;;;;;;;6.97;5.60;;;;;;;;;;4955205;28;20200;-76
2022/07/20 09:15:34;;;;;;;6.38;5.80;;;;;;;;;;4964505;28;20227;-77
2022/07/20 09:18:07;;;;;;;6.60;6.10;;;;;;;;;;4953282;28;20185;-77
2022/07/20 09:20:33;;;;;;;10.10;5.85;;;;;;;;;;4957009;28;20320;-76
2022/07/20 09:23:06;;;;;;;6.43;5.47;;;;;;;;;;4960494;28;20177;-76
2022/07/20 09:25:32;;;;;;;5.10;4.70;;;;;;;;;;4956640;28;20188;-76
2022/07/20 09:27:57;;;;;;;6.07;5.55;;;;;;;;;;4958256;28;20363;-76
2022/07/20 09:30:22;;;;;;;11.23;5.72;;;;;;;;;;4955837;28;20188;-76
2022/07/20 09:32:51;;;;;;;6.65;5.93;;;;;;;;;;4956326;28;20220;-76
2022/07/20 09:35:20;;;;;;;6.47;5.57;;;;;;;;;;4951654;28;20173;-76
2022/07/20 09:37:45;;;;;;;7.47;5.95;;;;;;;;;;4952368;28;20186;-76
2022/07/20 09:40:11;;;;;;;6.43;5.78;;;;;;;;;;4948426;28;20177;-76
2022/07/20 09:42:41;;;;;;;9.10;6.47;;;;;;;;;;4961071;28;20184;-76
2022/07/20 09:45:27;;;;;;;6.80;6.10;;;;;;;;;;4959729;28;20220;-77
2022/07/20 09:48:03;;;;;;;7.60;6.47;;;;;;;;;;4951792;28;20194;-76
2022/07/20 09:50:29;;;;;;;7.15;6.25;;;;;;;;;;4955420;28;20178;-76
2022/07/20 09:52:55;;;;;;;7.70;7.00;;;;;;;;;;4958109;28;20205;-77
2022/07/20 09:55:20;;;;;;;7.53;6.47;;;;;;;;;;4955667;28;20200;-77
2022/07/20 09:57:45;;;;;;;8.07;6.65;;;;;;;;;;4949463;28;20184;-76
2022/07/20 10:00:11;;;;;;;7.38;6.60;;;;;;;;;;4978594;28;20188;-77
2022/07/20 10:02:37;;;;;;;7.07;6.47;;;;;;;;;;4954515;28;20189;-76
2022/07/20 10:05:02;;;;;;;7.60;6.95;;;;;;;;;;4962489;28;20191;-76
2022/07/20 10:07:28;;;;;;;8.02;7.28;;;;;;;;;;4955099;28;20275;-77
2022/07/20 10:09:53;;;;;;;8.50;6.95;;;;;;;;;;4966602;28;20212;-76
2022/07/20 10:12:19;;;;;;;8.38;7.25;;;;;;;;;;4974054;28;20232;-76
2022/07/20 10:14:46;;;;;;;9.13;6.95;;;;;;;;;;4955756;28;20235;-77
2022/07/20 10:17:11;;;;;;;7.57;6.97;;;;;;;;;;4957408;28;20173;-76
2022/07/20 10:19:40;;;;;;;7.22;6.63;;;;;;;;;;4957996;28;20184;-76
2022/07/20 10:22:08;;;;;;;8.70;7.10;;;;;;;;;;4955513;28;20235;-77
2022/07/20 10:24:35;;;;;;;8.40;7.47;;;;;;;;;;4964347;28;20287;-82
2022/07/20 10:27:19;;;;;;;9.70;7.78;;;;;;;;;;4956106;28;20188;-81
2022/07/20 10:29:44;;;;;;;8.35;7.50;;;;;;;;;;4956899;28;20181;-82
2022/07/20 10:32:09;;;;;;;9.03;7.50;;;;;;;;;;4963128;28;20209;-81
2022/07/20 10:34:35;;;;;;;9.73;8.50;;;;;;;;;;4955413;28;20513;-82
2022/07/20 10:37:19;;;;;;;10.48;8.07;;;;;;;;;;4956679;28;20249;-82
2022/07/20 10:39:46;;;;;;;8.32;7.63;;;;;;;;;;4947110;28;20181;-83
2022/07/20 10:42:28;;;;;;;8.60;7.90;;;;;;;;;;4956385;28;20427;-82
2022/07/20 10:44:54;;;;;;;9.50;8.55;;;;;;;;;;4959650;28;20184;-82
2022/07/20 10:47:38;;;;;;;10.18;8.15;;;;;;;;;;4980628;28;20184;-83
2022/07/20 10:50:04;;;;;;;8.85;7.90;;;;;;;;;;4952122;28;20424;-83
2022/07/20 10:52:31;;;;;;;8.43;7.68;;;;;;;;;;4970481;28;20248;-82
2022/07/20 10:54:56;;;;;;;8.70;7.88;;;;;;;;;;4956696;28;20185;-81
2022/07/20 10:57:21;;;;;;;9.15;8.32;;;;;;;;;;4977664;28;20257;-83
2022/07/20 10:59:59;;;;;;;9.52;8.55;;;;;;;;;;4957413;28;20540;-82
2022/07/20 11:02:24;;;;;;;10.18;8.18;;;;;;;;;;4975762;28;20186;-82
2022/07/20 11:04:49;;;;;;;9.30;8.40;;;;;;;;;;4944080;28;20209;-82
2022/07/20 11:07:31;;;;;;;9.97;8.60;;;;;;;;;;4977238;28;20188;-82
2022/07/20 11:09:56;;;;;;;9.98;9.07;;;;;;;;;;4957337;28;20418;-82
2022/07/20 11:12:26;;;;;;;9.60;8.70;;;;;;;;;;4956038;28;20215;-80
2022/07/20 11:14:51;;;;;;;9.18;8.45;;;;;;;;;;4955490;28;20235;-83
2022/07/20 11:17:17;;;;;;;13.70;9.88;;;;;;;;;;4972403;28;20169;-82
2022/07/20 11:19:42;;;;;;;11.45;10.23;;;;;;;;;;4957269;28;20177;-82
2022/07/20 11:22:09;;;;;;;12.77;11.50;;;;;;;;;;4971603;28;20235;-81
2022/07/20 11:24:36;;;;;;;12.75;11.50;;;;;;;;;;4967835;28;20262;-83
2022/07/20 11:27:34;;;;;;;13.20;11.98;;;;;;;;;;4953061;28;20174;-76
2022/07/20 11:30:42;;;;;;;13.20;11.98;;;;;;;;;;4910663;28;20242;-76
2022/07/20 11:36:40;;;;;;;12.85;11.70;;;;;;;;;;4849939;29;20185;-76
2022/07/20 11:39:10;;;;;;;14.70;13.07;;;;;;;;;;4873213;29;20188;-76
2022/07/20 11:41:39;;;;;;;14.20;12.38;;;;;;;;;;4874636;29;20200;-77
2022/07/20 11:44:07;;;;;;;14.52;12.98;;;;;;;;;;4869854;29;20180;-77
2022/07/20 11:46:37;;;;;;;17.48;13.32;;;;;;;;;;4875472;29;20193;-76
2022/07/20 11:49:04;;;;;;;16.83;15.15;;;;;;;;;;4885702;29;20277;-77
2022/07/20 11:51:30;;;;;;;16.50;13.45;;;;;;;;;;4894144;29;20195;-76
2022/07/20 11:53:55;;;;;;;16.63;15.00;;;;;;;;;;4872150;29;20191;-78
2022/07/20 11:56:22;;;;;;;17.02;15.27;;;;;;;;;;4888589;29;20226;-73
2022/07/20 11:58:50;;;;;;;17.02;15.27;;;;;;;;;;4893597;29;20234;-72
2022/07/20 12:01:19;;;;;;;17.50;16.00;;;;;;;;;;4874561;29;20195;-72
2022/07/20 12:03:47;;;;;;;16.98;15.25;;;;;;;;;;4891588;29;20187;-73
2022/07/20 12:06:13;;;;;;;17.02;15.32;;;;;;;;;;4882018;28;20285;-73
2022/07/20 12:08:40;;;;;;;17.25;15.43;;;;;;;;;;4971010;28;20239;-73
2022/07/20 12:11:05;;;;;;;17.90;14.48;;;;;;;;;;4960232;28;20188;-73
2022/07/20 12:13:31;;;;;;;16.95;15.45;;;;;;;;;;4953712;28;20193;-73
2022/07/20 12:15:58;;;;;;;17.23;14.75;;;;;;;;;;4955239;28;20181;-73
2022/07/20 12:18:35;;;;;;;15.90;14.63;;;;;;;;;;4972980;28;20173;-73
2022/07/20 12:21:01;;;;;;;17.45;15.70;;;;;;;;;;4971711;28;20223;-74
2022/07/20 12:23:26;;;;;;;17.45;15.65;;;;;;;;;;4979784;28;20194;-72
2022/07/20 12:25:52;;;;;;;16.15;14.70;;;;;;;;;;4971207;28;20196;-74
2022/07/20 12:28:27;;;;;;;16.95;14.90;;;;;;;;;;4974780;28;20192;-73
2022/07/20 12:30:52;;;;;;;17.40;15.57;;;;;;;;;;4978147;28;21131;-73
2022/07/20 12:33:18;;;;;;;16.83;15.33;;;;;;;;;;4976299;28;20215;-73
2022/07/20 12:35:44;;;;;;;18.03;15.17;;;;;;;;;;4996539;28;20505;-73
2022/07/20 12:38:10;;;;;;;17.08;15.50;;;;;;;;;;4996710;28;20413;-73
2022/07/20 12:40:40;;;;;;;16.63;15.02;;;;;;;;;;4973966;28;20176;-73
2022/07/20 12:43:25;;;;;;;16.17;14.82;;;;;;;;;;4976865;28;20197;-73
2022/07/20 12:45:51;;;;;;;17.27;15.57;;;;;;;;;;4986445;28;20184;-73
2022/07/20 12:48:16;;;;;;;16.95;15.18;;;;;;;;;;4977119;28;20191;-73
2022/07/20 12:50:41;;;;;;;17.10;15.60;;;;;;;;;;4976762;28;20181;-73
2022/07/20 12:53:06;;;;;;;17.65;16.05;;;;;;;;;;4998397;28;20231;-73
2022/07/20 12:55:31;;;;;;;17.25;15.65;;;;;;;;;;4996201;28;20219;-72
2022/07/20 12:57:57;;;;;;;17.00;15.40;;;;;;;;;;4991431;28;20176;-73
2022/07/20 13:00:22;;;;;;;16.13;14.23;;;;;;;;;;4977766;28;20234;-73
2022/07/20 13:02:47;;;;;;;16.27;14.65;;;;;;;;;;4998584;28;20319;-73
2022/07/20 13:05:12;;;;;;;19.15;16.00;;;;;;;;;;4972647;28;20242;-72
2022/07/20 13:07:38;;;;;;;16.48;15.02;;;;;;;;;;4980116;28;20196;-73
2022/07/20 13:10:03;;;;;;;18.63;15.45;;;;;;;;;;4980045;28;20283;-73
2022/07/20 13:12:28;;;;;;;18.40;15.05;;;;;;;;;;4980869;28;20203;-72
2022/07/20 13:14:54;;;;;;;16.92;15.18;;;;;;;;;;4997887;28;20179;-72
2022/07/20 13:17:19;;;;;;;17.42;15.82;;;;;;;;;;4988296;28;20183;-73
2022/07/20 13:19:44;;;;;;;18.15;14.05;;;;;;;;;;4995632;28;20168;-72
2022/07/20 13:22:09;;;;;;;15.63;14.13;;;;;;;;;;4960222;28;20224;-74
2022/07/20 13:24:34;;;;;;;16.23;14.63;;;;;;;;;;4967814;28;20196;-73
2022/07/20 13:27:00;;;;;;;16.48;14.88;;;;;;;;;;4971219;28;20430;-72
2022/07/20 13:29:25;;;;;;;16.00;14.45;;;;;;;;;;4954394;28;20280;-73
2022/07/20 13:31:50;;;;;;;18.67;16.38;;;;;;;;;;4953280;28;20205;-73
2022/07/20 13:34:16;;;;;;;17.02;15.38;;;;;;;;;;4953203;28;20239;-73
2022/07/20 13:36:41;;;;;;;15.68;14.13;;;;;;;;;;4953766;28;20181;-73
2022/07/20 13:39:06;;;;;;;16.45;14.95;;;;;;;;;;4972584;28;20215;-73
2022/07/20 13:41:31;;;;;;;16.67;15.07;;;;;;;;;;4959971;28;20321;-73
2022/07/20 13:43:57;;;;;;;16.45;14.98;;;;;;;;;;4966142;28;20180;-72
2022/07/20 13:46:22;;;;;;;15.43;13.82;;;;;;;;;;4971670;28;20236;-73
2022/07/20 13:48:47;;;;;;;16.52;14.88;;;;;;;;;;4972468;28;20189;-73
2022/07/20 13:51:12;;;;;;;16.77;15.05;;;;;;;;;;4973695;28;20240;-72
2022/07/20 13:53:38;;;;;;;15.57;14.07;;;;;;;;;;4966284;28;20173;-73
2022/07/20 13:56:04;;;;;;;15.63;13.98;;;;;;;;;;4957153;28;20205;-73
2022/07/20 13:58:29;;;;;;;16.63;14.93;;;;;;;;;;4965683;28;20181;-73
2022/07/20 14:00:55;;;;;;;16.63;15.00;;;;;;;;;;4946960;28;20196;-73
2022/07/20 14:03:20;;;;;;;16.20;14.50;;;;;;;;;;4948903;28;20185;-73
2022/07/20 14:05:45;;;;;;;15.88;14.30;;;;;;;;;;4947240;28;20184;-73
2022/07/20 14:08:12;;;;;;;15.82;14.38;;;;;;;;;;4966984;28;20198;-72
2022/07/20 14:10:37;;;;;;;17.63;15.82;;;;;;;;;;4963473;28;20765;-73
2022/07/20 14:13:02;;;;;;;15.43;14.13;;;;;;;;;;4964083;28;20204;-73
2022/07/20 14:15:28;;;;;;;16.42;14.02;;;;;;;;;;4948773;28;20182;-73
2022/07/20 14:17:53;;;;;;;15.77;14.35;;;;;;;;;;4949748;28;20184;-73
2022/07/20 14:20:18;;;;;;;16.20;14.80;;;;;;;;;;4950171;28;20204;-74
2022/07/20 14:22:43;;;;;;;17.27;15.48;;;;;;;;;;4946411;28;20189;-73
2022/07/20 14:25:09;;;;;;;15.98;14.43;;;;;;;;;;4958266;28;20177;-74
2022/07/20 14:27:35;;;;;;;16.25;14.57;;;;;;;;;;4956610;28;20192;-73
2022/07/20 14:30:00;;;;;;;15.88;14.50;;;;;;;;;;4955431;28;20200;-73
2022/07/20 14:32:26;;;;;;;15.93;13.80;;;;;;;;;;4950565;28;20228;-74
2022/07/20 14:34:51;;;;;;;19.70;15.27;;;;;;;;;;4956347;28;20184;-74
2022/07/20 14:37:16;;;;;;;16.48;15.07;;;;;;;;;;4952836;28;20187;-74
2022/07/20 14:39:42;;;;;;;16.67;14.70;;;;;;;;;;4946192;28;20257;-74